M/V Crosby Hustler — WDA3941 — position and weather

sailwx.info

Track history (hours):
 
Tides and Currents Weather Stations Pressure Air Temp Water Temp Dewpoint Dewpoint Depression Visibility Wind Speed Wind Dir Waves Ship Positions

M/V Crosby Hustler

Owner: CROSBY INLAND MARINE LLC, GOLDEN MEADOW, LA. More information available from US FCC via Universal Licensing System and Coast Guard Vessel Documentation Center.

Last reported at 2015-Jul-03 15:27 UTC. Time now 2015-Jul-03 15:42 UTC.
Position N 29°48' W 095°04'.

Length 18 m; draft 9 m.

Type: Tug. MMSI: 366804030.

Date/timePositionNaut miles runAvg speedWind from/ knotsBaromVisibWave heightAir tempDewpointWater temp
2015-Jul-03 15:27N 29°48' W 095°04'0 0.0
2015-Jul-03 14:32N 29°48' W 095°04'0 0.0
2015-Jul-03 13:17N 29°48' W 095°04'0 0.0
2015-Jul-03 12:32N 29°48' W 095°04'0 0.0
2015-Jul-03 11:33N 29°48' W 095°04'0 0.0
2015-Jul-03 10:30N 29°48' W 095°04'0 0.0
2015-Jul-03 09:33N 29°48' W 095°04'0 0.0
2015-Jul-03 08:32N 29°48' W 095°04'0 0.0
2015-Jul-03 07:29N 29°48' W 095°04'0 0.0
2015-Jul-03 06:23N 29°48' W 095°04'0 0.0
2015-Jul-03 05:23N 29°48' W 095°04'0 0.0
2015-Jul-03 04:26N 29°48' W 095°04'0 0.0
2015-Jul-03 03:20N 29°48' W 095°04'0 0.0
2015-Jul-03 02:32N 29°48' W 095°04'2 1.7
2015-Jul-03 01:30N 29°46' W 095°05'1 0.6
2015-Jul-03 00:33N 29°46' W 095°05'1 0.8
2015-Jul-02 23:32N 29°47' W 095°05'0 0.0
2015-Jul-02 22:12N 29°47' W 095°05'1 1.9
2015-Jul-02 21:33N 29°47' W 095°04'0 0.1
2015-Jul-02 20:25N 29°48' W 095°04'0 0.0
2015-Jul-02 08:19N 29°48' W 095°04'1 1.4
2015-Jul-02 07:33N 29°47' W 095°05'5 4.8
2015-Jul-02 06:33N 29°44' W 095°09'5 0.1
2015-Jun-30 22:29N 29°43' W 095°15'4 4.1
2015-Jun-30 21:33N 29°45' W 095°11'4 4.2
2015-Jun-30 20:32N 29°45' W 095°06'1 0.1
2015-Jun-30 10:14N 29°46' W 095°06'1 0.1
2015-Jun-30 00:29N 29°46' W 095°06'1 0.8
2015-Jun-29 23:14N 29°46' W 095°05'2 2.7
2015-Jun-29 22:30N 29°44' W 095°04'3 3.5
2015-Jun-29 21:33N 29°42' W 095°01'4 3.7
2015-Jun-29 20:33N 29°39' W 094°58'5 4.9
2015-Jun-29 19:33N 29°35' W 094°56'5 4.8
2015-Jun-29 18:33N 29°31' W 094°53'  
Track history (hours):
 
Tides and Currents Weather Stations Pressure Air Temp Water Temp Dewpoint Dewpoint Depression Visibility Wind Speed Wind Dir Waves Ship Positions

M/V Crosby Hustler

Owner: CROSBY INLAND MARINE LLC, GOLDEN MEADOW, LA. More information available from US FCC via Universal Licensing System and Coast Guard Vessel Documentation Center.

Last reported at 2015-Jul-03 15:27 UTC. Time now 2015-Jul-03 15:42 UTC.
Position N 29°48' W 095°04'.

Length 18 m; draft 9 m.

Type: Tug. MMSI: 366804030.

Date/timePositionNaut miles runAvg speedWind from/ knotsBaromVisibWave heightAir tempDewpointWater temp
2015-Jul-03 15:27N 29°48' W 095°04'0 0.0
2015-Jul-03 14:32N 29°48' W 095°04'0 0.0
2015-Jul-03 13:17N 29°48' W 095°04'0 0.0
2015-Jul-03 12:32N 29°48' W 095°04'0 0.0
2015-Jul-03 11:33N 29°48' W 095°04'0 0.0
2015-Jul-03 10:30N 29°48' W 095°04'0 0.0
2015-Jul-03 09:33N 29°48' W 095°04'0 0.0
2015-Jul-03 08:32N 29°48' W 095°04'0 0.0
2015-Jul-03 07:29N 29°48' W 095°04'0 0.0
2015-Jul-03 06:23N 29°48' W 095°04'0 0.0
2015-Jul-03 05:23N 29°48' W 095°04'0 0.0
2015-Jul-03 04:26N 29°48' W 095°04'0 0.0
2015-Jul-03 03:20N 29°48' W 095°04'0 0.0
2015-Jul-03 02:32N 29°48' W 095°04'2 1.7
2015-Jul-03 01:30N 29°46' W 095°05'1 0.6
2015-Jul-03 00:33N 29°46' W 095°05'1 0.8
2015-Jul-02 23:32N 29°47' W 095°05'0 0.0
2015-Jul-02 22:12N 29°47' W 095°05'1 1.9
2015-Jul-02 21:33N 29°47' W 095°04'0 0.1
2015-Jul-02 20:25N 29°48' W 095°04'0 0.0
2015-Jul-02 08:19N 29°48' W 095°04'1 1.4
2015-Jul-02 07:33N 29°47' W 095°05'5 4.8
2015-Jul-02 06:33N 29°44' W 095°09'5 0.1
2015-Jun-30 22:29N 29°43' W 095°15'4 4.1
2015-Jun-30 21:33N 29°45' W 095°11'4 4.2
2015-Jun-30 20:32N 29°45' W 095°06'1 0.1
2015-Jun-30 10:14N 29°46' W 095°06'1 0.1
2015-Jun-30 00:29N 29°46' W 095°06'1 0.8
2015-Jun-29 23:14N 29°46' W 095°05'2 2.7
2015-Jun-29 22:30N 29°44' W 095°04'3 3.5
2015-Jun-29 21:33N 29°42' W 095°01'4 3.7
2015-Jun-29 20:33N 29°39' W 094°58'5 4.9
2015-Jun-29 19:33N 29°35' W 094°56'5 4.8
2015-Jun-29 18:33N 29°31' W 094°53'  

Dump ship's entire track history